Time;durP1;ratioP1;P1;durP2;ratioP2;P2;SDS_P1;SDS_P2;PMS_P1;PMS_P2;Temp;Humidity;BMP_temperature;BMP_pressure;BME280_temperature;BME280_humidity;BME280_pressure;Samples;Min_cycle;Max_cycle;Signal;HPM_P1;HPM_P2
2024/01/03 00:25:59;;;;;;;7.97;2.80;;;;;;;-142.43;100.00;63430.59;4801349;29;20050;-81
2024/01/03 00:28:53;;;;;;;10.25;3.08;;;;;;;-142.43;100.00;63430.59;4844385;29;20430;-81
2024/01/03 00:31:37;;;;;;;13.63;2.90;;;;;;;-142.43;100.00;63430.59;4846979;29;20133;-82
2024/01/03 00:34:06;;;;;;;12.60;3.03;;;;;;;-142.43;100.00;63430.59;4893586;28;20051;-82
2024/01/03 00:36:33;;;;;;;11.48;3.53;;;;;;;-142.43;100.00;63430.59;4962780;28;20142;-82
2024/01/03 00:39:00;;;;;;;11.68;2.58;;;;;;;-142.43;100.00;63430.59;4959367;29;20110;-81
2024/01/03 00:41:27;;;;;;;11.90;3.03;;;;;;;-142.43;100.00;63430.59;4960344;29;20586;-79
2024/01/03 00:43:55;;;;;;;10.82;3.13;;;;;;;-142.43;100.00;63430.59;4960639;29;20051;-80
2024/01/03 00:46:21;;;;;;;8.65;2.97;;;;;;;-142.43;100.00;63430.59;4964206;28;20137;-80
2024/01/03 00:48:48;;;;;;;11.88;3.40;;;;;;;-142.43;100.00;63430.59;4963504;28;20058;-81
2024/01/03 00:51:15;;;;;;;8.70;2.90;;;;;;;-142.43;100.00;63430.59;4961045;29;20082;-80
2024/01/03 00:53:41;;;;;;;7.63;2.72;;;;;;;-142.43;100.00;63430.59;4960040;29;20063;-80
2024/01/03 00:56:08;;;;;;;6.18;2.47;;;;;;;-142.43;100.00;63430.59;4963938;28;20134;-80
2024/01/03 00:58:35;;;;;;;12.05;3.25;;;;;;;-142.43;100.00;63430.59;4959874;29;20141;-81
2024/01/03 01:01:03;;;;;;;14.07;2.90;;;;;;;-142.43;100.00;63430.59;4959516;29;20097;-79
2024/01/03 01:03:30;;;;;;;6.90;2.30;;;;;;;-142.43;100.00;63430.59;4967596;28;20047;-81
2024/01/03 01:05:57;;;;;;;7.53;2.30;;;;;;;-142.43;100.00;63430.59;4961252;29;20078;-79
2024/01/03 01:08:23;;;;;;;6.80;2.28;;;;;;;-142.43;100.00;63430.59;4963909;28;20119;-80
2024/01/03 01:10:50;;;;;;;6.90;2.00;;;;;;;-142.43;100.00;63430.59;4963784;29;20090;-80
2024/01/03 01:13:16;;;;;;;9.43;2.42;;;;;;;-142.43;100.00;63430.59;4965489;29;20055;-82
2024/01/03 01:15:44;;;;;;;7.75;2.78;;;;;;;-142.43;100.00;63430.59;4964292;29;20110;-81
2024/01/03 01:18:12;;;;;;;10.65;2.38;;;;;;;-142.43;100.00;63430.59;4962308;28;20078;-81
2024/01/03 01:20:38;;;;;;;6.93;2.38;;;;;;;-142.43;100.00;63430.59;4960674;29;20093;-81
2024/01/03 01:23:05;;;;;;;7.95;2.50;;;;;;;-142.43;100.00;63430.59;4959692;29;20082;-80
2024/01/03 01:25:32;;;;;;;7.40;2.28;;;;;;;-142.43;100.00;63430.59;4964262;29;20043;-81
2024/01/03 01:27:58;;;;;;;6.43;2.40;;;;;;;-142.43;100.00;63430.59;4961643;29;20063;-79
2024/01/03 01:30:25;;;;;;;9.70;2.45;;;;;;;-142.43;100.00;63430.59;4954310;29;20055;-80
2024/01/03 01:32:52;;;;;;;5.35;2.20;;;;;;;-142.43;100.00;63430.59;4963762;28;20115;-81
2024/01/03 01:35:20;;;;;;;5.05;2.58;;;;;;;-142.43;100.00;63430.59;4961225;28;20142;-79
2024/01/03 01:37:48;;;;;;;5.05;2.53;;;;;;;-142.43;100.00;63430.59;4961047;29;20051;-79
2024/01/03 01:40:15;;;;;;;6.57;2.05;;;;;;;-142.43;100.00;63430.59;4965126;29;20115;-78
2024/01/03 01:42:42;;;;;;;8.52;2.13;;;;;;;-142.43;100.00;63430.59;4965606;28;20110;-79
2024/01/03 01:45:09;;;;;;;8.73;2.67;;;;;;;-142.43;100.00;63430.59;4964376;28;20494;-79
2024/01/03 01:47:35;;;;;;;4.60;2.05;;;;;;;-142.43;100.00;63430.59;4964034;29;20086;-79
2024/01/03 01:50:02;;;;;;;10.18;2.17;;;;;;;-142.43;100.00;63430.59;4963156;29;20147;-80
2024/01/03 01:52:31;;;;;;;7.78;2.72;;;;;;;-142.43;100.00;63430.59;4962526;29;20130;-80
2024/01/03 01:54:57;;;;;;;5.35;2.05;;;;;;;-142.43;100.00;63430.59;4963992;28;20150;-80
2024/01/03 01:57:24;;;;;;;7.68;2.15;;;;;;;-142.43;100.00;63430.59;4958842;28;20151;-80
2024/01/03 01:59:51;;;;;;;6.68;2.17;;;;;;;-142.43;100.00;63430.59;4963107;29;20047;-80
2024/01/03 02:02:18;;;;;;;4.90;2.63;;;;;;;-142.43;100.00;63430.59;4964217;29;20486;-81
2024/01/03 02:04:44;;;;;;;10.60;2.40;;;;;;;-142.43;100.00;63430.59;4963902;29;20059;-81
2024/01/03 02:07:11;;;;;;;7.75;2.28;;;;;;;-142.43;100.00;63430.59;4961974;29;20098;-80
2024/01/03 02:09:41;;;;;;;9.05;2.60;;;;;;;-142.43;100.00;63430.59;4957862;29;20055;-80
2024/01/03 02:12:09;;;;;;;7.20;2.83;;;;;;;-142.43;100.00;63430.59;4954670;29;20429;-80
2024/01/03 02:14:36;;;;;;;10.60;2.40;;;;;;;-142.43;100.00;63430.59;4962491;28;20118;-79
2024/01/03 02:17:03;;;;;;;11.90;4.05;;;;;;;-142.43;100.00;63430.59;4959148;29;20090;-81
2024/01/03 02:19:29;;;;;;;8.48;2.22;;;;;;;-142.43;100.00;63430.59;4960682;29;20059;-80
2024/01/03 02:22:00;;;;;;;9.88;2.50;;;;;;;-142.43;100.00;63430.59;4963163;29;20134;-81
2024/01/03 02:24:26;;;;;;;6.72;2.47;;;;;;;-142.43;100.00;63430.59;4964914;29;20189;-82
2024/01/03 02:26:53;;;;;;;9.27;2.75;;;;;;;-142.43;100.00;63430.59;4962962;29;20455;-82
2024/01/03 02:29:19;;;;;;;5.78;2.00;;;;;;;-142.43;100.00;63430.59;4965822;28;20090;-80
2024/01/03 02:31:46;;;;;;;7.50;2.80;;;;;;;-142.43;100.00;63430.59;4964082;28;20061;-79
2024/01/03 02:34:13;;;;;;;10.15;3.17;;;;;;;-142.43;100.00;63430.59;4963255;28;20075;-80
2024/01/03 02:36:39;;;;;;;7.75;2.28;;;;;;;-142.43;100.00;63430.59;4963595;28;20495;-80
2024/01/03 02:39:08;;;;;;;12.63;2.58;;;;;;;-142.43;100.00;63430.59;4961348;29;20138;-80
2024/01/03 02:41:34;;;;;;;4.75;2.28;;;;;;;-142.43;100.00;63430.59;4962682;29;20051;-79
2024/01/03 02:44:01;;;;;;;11.07;2.40;;;;;;;-142.43;100.00;63430.59;4962589;28;20095;-80
2024/01/03 02:46:27;;;;;;;12.02;2.92;;;;;;;-142.43;100.00;63430.59;4962615;29;20498;-80
2024/01/03 02:48:54;;;;;;;5.25;2.13;;;;;;;-142.43;100.00;63430.59;4961021;29;20078;-80
2024/01/03 02:51:21;;;;;;;7.75;2.33;;;;;;;-142.43;100.00;63430.59;4962546;29;20079;-80
2024/01/03 02:53:48;;;;;;;6.97;2.50;;;;;;;-142.43;100.00;63430.59;4965475;28;20086;-80
2024/01/03 02:56:16;;;;;;;7.43;2.72;;;;;;;-142.43;100.00;63430.59;4962507;28;20083;-80
2024/01/03 02:58:43;;;;;;;7.47;2.58;;;;;;;-142.43;100.00;63430.59;4962877;28;20050;-80
2024/01/03 03:01:10;;;;;;;6.05;2.50;;;;;;;-142.43;100.00;63430.59;4961878;29;20082;-80
2024/01/03 03:03:36;;;;;;;8.18;2.70;;;;;;;-142.43;100.00;63430.59;4961356;29;20054;-79
2024/01/03 03:06:04;;;;;;;6.72;2.05;;;;;;;-142.43;100.00;63430.59;4962168;28;20083;-79
2024/01/03 03:08:32;;;;;;;7.35;2.28;;;;;;;-142.43;100.00;63430.59;4960448;29;20149;-81
2024/01/03 03:10:58;;;;;;;6.65;1.92;;;;;;;-142.43;100.00;63430.59;4961092;29;20118;-81
2024/01/03 03:13:26;;;;;;;6.13;2.30;;;;;;;-142.43;100.00;63430.59;4961837;29;20050;-81
2024/01/03 03:15:53;;;;;;;9.23;2.10;;;;;;;-142.43;100.00;63430.59;4965782;28;20054;-81
2024/01/03 03:18:20;;;;;;;9.40;2.17;;;;;;;-142.43;100.00;63430.59;4964282;28;20553;-81
2024/01/03 03:20:46;;;;;;;6.97;2.30;;;;;;;-142.43;100.00;63430.59;4962903;29;20133;-81
2024/01/03 03:23:13;;;;;;;11.00;2.88;;;;;;;-142.43;100.00;63430.59;4963388;29;20078;-80
2024/01/03 03:25:39;;;;;;;7.55;2.47;;;;;;;-142.43;100.00;63430.59;4967353;29;20051;-80
2024/01/03 03:28:07;;;;;;;5.38;2.17;;;;;;;-142.43;100.00;63430.59;4967480;29;20086;-80
2024/01/03 03:30:36;;;;;;;7.88;2.58;;;;;;;-142.43;100.00;63430.59;4969435;29;20110;-80
2024/01/03 03:33:02;;;;;;;7.90;2.15;;;;;;;-142.43;100.00;63430.59;4970782;29;20112;-80
2024/01/03 03:35:29;;;;;;;10.98;3.25;;;;;;;-142.43;100.00;63430.59;4968372;29;20063;-79
2024/01/03 03:37:56;;;;;;;9.20;2.80;;;;;;;-142.43;100.00;63430.59;4969204;28;20134;-81
2024/01/03 03:40:24;;;;;;;13.52;2.78;;;;;;;-142.43;100.00;63430.59;4962389;29;20413;-81
2024/01/03 03:42:51;;;;;;;11.90;3.03;;;;;;;-142.43;100.00;63430.59;4968028;29;20061;-80
2024/01/03 03:45:18;;;;;;;10.30;2.65;;;;;;;-142.43;100.00;63430.59;4963121;28;20051;-80
2024/01/03 03:47:47;;;;;;;7.40;3.15;;;;;;;-142.43;100.00;63430.59;4959739;29;20138;-80
2024/01/03 03:50:13;;;;;;;18.00;3.45;;;;;;;-142.43;100.00;63430.59;4963337;29;20051;-79
2024/01/03 03:52:40;;;;;;;7.28;2.90;;;;;;;-142.43;100.00;63430.59;4959102;29;20082;-80
2024/01/03 03:55:07;;;;;;;9.07;3.35;;;;;;;-142.43;100.00;63430.59;4972531;28;20091;-79
2024/01/03 03:57:34;;;;;;;11.68;3.33;;;;;;;-142.43;100.00;63430.59;4964373;28;20071;-78
2024/01/03 04:00:03;;;;;;;11.40;3.15;;;;;;;-142.43;100.00;63430.59;4963468;28;20059;-81
2024/01/03 04:02:30;;;;;;;11.18;3.10;;;;;;;-142.43;100.00;63430.59;4960610;29;20069;-81
2024/01/03 04:04:58;;;;;;;12.48;2.80;;;;;;;-142.43;100.00;63430.59;4960533;29;20051;-82
2024/01/03 04:07:26;;;;;;;10.75;3.20;;;;;;;-142.43;100.00;63430.59;4959256;29;20051;-81
2024/01/03 04:09:53;;;;;;;8.02;2.72;;;;;;;-142.43;100.00;63430.59;4958878;28;20114;-80
2024/01/03 04:12:23;;;;;;;8.98;3.03;;;;;;;-142.43;100.00;63430.59;4961151;29;20130;-81
2024/01/03 04:14:49;;;;;;;10.88;3.20;;;;;;;-142.43;100.00;63430.59;4961006;29;20123;-81
2024/01/03 04:17:16;;;;;;;6.90;3.67;;;;;;;-142.43;100.00;63430.59;4962902;28;20114;-81
2024/01/03 04:19:43;;;;;;;7.45;2.83;;;;;;;-142.43;100.00;63430.59;4964304;28;20051;-81
2024/01/03 04:22:11;;;;;;;11.52;2.55;;;;;;;-142.43;100.00;63430.59;4962755;28;20502;-81
2024/01/03 04:24:38;;;;;;;11.10;3.55;;;;;;;-142.43;100.00;63430.59;4962010;28;20589;-81
2024/01/03 04:27:05;;;;;;;11.32;3.28;;;;;;;-142.43;100.00;63430.59;4960589;29;20082;-81
2024/01/03 04:29:31;;;;;;;10.38;2.78;;;;;;;-142.43;100.00;63430.59;4959911;29;20082;-81
2024/01/03 04:31:58;;;;;;;7.80;2.75;;;;;;;-142.43;100.00;63430.59;4961642;29;20051;-80
2024/01/03 04:34:24;;;;;;;9.88;3.08;;;;;;;-142.43;100.00;63430.59;4954088;29;20051;-81
2024/01/03 04:36:51;;;;;;;11.85;3.10;;;;;;;-142.43;100.00;63430.59;4961988;28;20062;-81
2024/01/03 04:39:19;;;;;;;14.02;3.17;;;;;;;-142.43;100.00;63430.59;4961191;28;20403;-80
2024/01/03 04:41:45;;;;;;;10.88;3.25;;;;;;;-142.43;100.00;63430.59;4961813;29;20090;-81
2024/01/03 04:44:12;;;;;;;9.77;2.95;;;;;;;-142.43;100.00;63430.59;4962622;29;20130;-81
2024/01/03 04:46:39;;;;;;;8.93;3.00;;;;;;;-142.43;100.00;63430.59;4961786;28;20071;-80
2024/01/03 04:49:06;;;;;;;13.20;3.25;;;;;;;-142.43;100.00;63430.59;4961737;29;20139;-80
2024/01/03 04:51:32;;;;;;;13.30;3.38;;;;;;;-142.43;100.00;63430.59;4963826;29;20075;-81
2024/01/03 04:53:59;;;;;;;11.85;3.50;;;;;;;-142.43;100.00;63430.59;4963360;29;20454;-81
2024/01/03 04:56:29;;;;;;;9.98;3.65;;;;;;;-142.43;100.00;63430.59;4963358;29;20079;-80
2024/01/03 04:58:55;;;;;;;9.95;3.03;;;;;;;-142.43;100.00;63430.59;4963724;28;20049;-81
2024/01/03 05:01:22;;;;;;;8.48;3.17;;;;;;;-142.43;100.00;63430.59;4964803;29;20055;-81
2024/01/03 05:03:49;;;;;;;9.23;3.28;;;;;;;-142.43;100.00;63430.59;4962322;29;20077;-80
2024/01/03 05:06:15;;;;;;;10.00;2.70;;;;;;;-142.43;100.00;63430.59;4960510;29;20094;-79
2024/01/03 05:08:42;;;;;;;9.45;2.75;;;;;;;-142.43;100.00;63430.59;4960281;29;20087;-79
2024/01/03 05:11:09;;;;;;;12.73;3.45;;;;;;;-142.43;100.00;63430.59;4959537;29;20055;-79
2024/01/03 05:13:37;;;;;;;10.48;2.95;;;;;;;-142.43;100.00;63430.59;4959637;29;20093;-80
2024/01/03 05:16:05;;;;;;;11.02;3.30;;;;;;;-142.43;100.00;63430.59;4959819;29;20070;-80
2024/01/03 05:18:31;;;;;;;9.82;3.05;;;;;;;-142.43;100.00;63430.59;4959818;28;20486;-80
2024/01/03 05:20:58;;;;;;;14.75;3.15;;;;;;;-142.43;100.00;63430.59;4964438;28;20078;-80
2024/01/03 05:23:25;;;;;;;10.40;2.90;;;;;;;-142.43;100.00;63430.59;4966673;28;20479;-81
2024/01/03 05:25:51;;;;;;;10.40;3.03;;;;;;;-142.43;100.00;63430.59;4963097;29;20135;-81
2024/01/03 05:28:18;;;;;;;8.95;2.92;;;;;;;-142.43;100.00;63430.59;4962708;29;20051;-80
2024/01/03 05:30:46;;;;;;;12.13;3.40;;;;;;;-142.43;100.00;63430.59;4962426;29;20055;-80
2024/01/03 05:33:12;;;;;;;9.82;3.15;;;;;;;-142.43;100.00;63430.59;4954609;29;20565;-82
2024/01/03 05:35:39;;;;;;;8.32;2.72;;;;;;;-142.43;100.00;63430.59;4966315;28;20093;-80
2024/01/03 05:38:06;;;;;;;12.70;3.60;;;;;;;-142.43;100.00;63430.59;4962838;28;20130;-81
2024/01/03 05:40:32;;;;;;;17.27;3.88;;;;;;;-142.43;100.00;63430.59;4964137;29;20055;-81
2024/01/03 05:42:59;;;;;;;14.90;4.32;;;;;;;-142.43;100.00;63430.59;4963391;29;20421;-83
2024/01/03 05:45:26;;;;;;;14.43;3.88;;;;;;;-142.43;100.00;63430.59;4964770;29;20077;-82
2024/01/03 05:47:54;;;;;;;12.32;3.28;;;;;;;-142.43;100.00;63430.59;4965415;29;20473;-82
2024/01/03 05:50:20;;;;;;;13.45;4.00;;;;;;;-142.43;100.00;63430.59;4963989;29;20453;-82
2024/01/03 05:52:46;;;;;;;15.63;3.90;;;;;;;-142.43;100.00;63430.59;4963920;29;20110;-79
2024/01/03 05:55:13;;;;;;;13.80;4.35;;;;;;;-142.43;100.00;63430.59;4964213;29;20075;-80
2024/01/03 05:57:39;;;;;;;10.02;3.45;;;;;;;-142.43;100.00;63430.59;4965692;28;20047;-81
2024/01/03 06:00:07;;;;;;;13.57;3.47;;;;;;;-142.43;100.00;63430.59;4964694;29;20143;-80
2024/01/03 06:02:34;;;;;;;12.57;3.58;;;;;;;-142.43;100.00;63430.59;4964323;29;20111;-80
2024/01/03 06:05:01;;;;;;;12.50;3.92;;;;;;;-142.43;100.00;63430.59;4968129;28;20490;-79
2024/01/03 06:07:28;;;;;;;14.02;3.70;;;;;;;-142.43;100.00;63430.59;4970901;28;20075;-79
2024/01/03 06:09:55;;;;;;;10.18;3.60;;;;;;;-142.43;100.00;63430.59;4966388;28;20138;-80
2024/01/03 06:12:22;;;;;;;23.23;5.65;;;;;;;-142.43;100.00;63430.59;4962116;29;20051;-81
2024/01/03 06:14:49;;;;;;;15.65;3.65;;;;;;;-142.43;100.00;63430.59;4964127;28;20051;-80
2024/01/03 06:17:15;;;;;;;16.63;4.20;;;;;;;-142.43;100.00;63430.59;4967554;28;20062;-80
2024/01/03 06:19:42;;;;;;;22.13;4.15;;;;;;;-142.43;100.00;63430.59;4961885;28;20139;-80
2024/01/03 06:22:10;;;;;;;15.90;3.60;;;;;;;-142.43;100.00;63430.59;4961533;29;20055;-80
2024/01/03 06:24:37;;;;;;;17.95;4.25;;;;;;;-142.43;100.00;63430.59;4962079;29;20141;-81
2024/01/03 06:27:07;;;;;;;16.65;3.70;;;;;;;-142.43;100.00;63430.59;4961817;29;20067;-80
2024/01/03 06:29:33;;;;;;;16.73;4.35;;;;;;;-142.43;100.00;63430.59;4962553;28;20143;-79
2024/01/03 06:32:00;;;;;;;19.13;3.90;;;;;;;-142.43;100.00;63430.59;4959962;28;20324;-81
2024/01/03 06:34:27;;;;;;;20.10;3.67;;;;;;;-142.43;100.00;63430.59;4965095;28;20061;-81
2024/01/03 06:36:54;;;;;;;19.00;4.18;;;;;;;-142.43;100.00;63430.59;4961847;29;20084;-80
2024/01/03 06:39:22;;;;;;;11.85;3.70;;;;;;;-142.43;100.00;63430.59;4962075;29;20082;-81
2024/01/03 06:41:48;;;;;;;14.70;3.60;;;;;;;-142.43;100.00;63430.59;4962132;29;20086;-80
2024/01/03 06:44:15;;;;;;;18.92;4.32;;;;;;;-142.43;100.00;63430.59;4967671;28;20047;-80
2024/01/03 06:46:41;;;;;;;16.95;4.28;;;;;;;-142.43;100.00;63430.59;4966665;28;20130;-79
2024/01/03 06:49:08;;;;;;;16.75;4.10;;;;;;;-142.43;100.00;63430.59;4964904;28;20079;-81
2024/01/03 06:51:34;;;;;;;12.85;4.45;;;;;;;-142.43;100.00;63430.59;4966219;28;20052;-82
2024/01/03 06:54:01;;;;;;;12.35;3.83;;;;;;;-142.43;100.00;63430.59;4971928;28;20055;-78
2024/01/03 06:56:29;;;;;;;15.00;3.70;;;;;;;-142.43;100.00;63430.59;4967714;29;20083;-80
2024/01/03 06:58:57;;;;;;;14.93;3.70;;;;;;;-142.43;100.00;63430.59;4970330;28;20114;-80
2024/01/03 07:01:24;;;;;;;14.88;4.18;;;;;;;-142.43;100.00;63430.59;4962648;28;20581;-81
2024/01/03 07:03:51;;;;;;;14.35;3.55;;;;;;;-142.43;100.00;63430.59;4962681;29;20110;-80
2024/01/03 07:06:17;;;;;;;17.63;4.45;;;;;;;-142.43;100.00;63430.59;4960096;29;20525;-78
2024/01/03 07:08:45;;;;;;;18.33;3.88;;;;;;;-142.43;100.00;63430.59;4959986;29;20126;-80
2024/01/03 07:11:12;;;;;;;15.63;4.45;;;;;;;-142.43;100.00;63430.59;4966369;28;20055;-80
2024/01/03 07:13:40;;;;;;;14.02;4.75;;;;;;;-142.43;100.00;63430.59;4960165;29;20111;-80
2024/01/03 07:16:07;;;;;;;13.85;4.28;;;;;;;-142.43;100.00;63430.59;4965884;28;20138;-80
2024/01/03 07:18:33;;;;;;;11.45;3.40;;;;;;;-142.43;100.00;63430.59;4966887;28;20111;-81
2024/01/03 07:21:00;;;;;;;12.75;3.22;;;;;;;-142.43;100.00;63430.59;4962011;29;20138;-82
2024/01/03 07:23:27;;;;;;;18.75;4.05;;;;;;;-142.43;100.00;63430.59;4962050;29;20051;-81
2024/01/03 07:25:54;;;;;;;12.82;3.47;;;;;;;-142.43;100.00;63430.59;4962373;29;20075;-81
2024/01/03 07:28:20;;;;;;;12.70;3.28;;;;;;;-142.43;100.00;63430.59;4961174;29;20537;-82
2024/01/03 07:30:48;;;;;;;17.83;3.45;;;;;;;-142.43;100.00;63430.59;4962894;28;20442;-81
2024/01/03 07:33:15;;;;;;;7.10;2.67;;;;;;;-142.43;100.00;63430.59;4961162;29;20431;-81
2024/01/03 07:35:42;;;;;;;10.98;2.92;;;;;;;-142.43;100.00;63430.59;4961428;29;20107;-81
2024/01/03 07:38:08;;;;;;;13.25;2.85;;;;;;;-142.43;100.00;63430.59;4960799;29;20087;-82
2024/01/03 07:40:35;;;;;;;12.23;3.70;;;;;;;-142.43;100.00;63430.59;4961422;29;20473;-80
2024/01/03 07:43:02;;;;;;;8.45;2.80;;;;;;;-142.43;100.00;63430.59;4965725;28;20095;-81
2024/01/03 07:45:28;;;;;;;7.40;2.88;;;;;;;-142.43;100.00;63430.59;4961017;29;20079;-82
2024/01/03 07:47:56;;;;;;;9.52;2.67;;;;;;;-142.43;100.00;63430.59;4964025;29;20075;-82
2024/01/03 07:50:23;;;;;;;8.93;2.63;;;;;;;-142.43;100.00;63430.59;4956148;28;20058;-82
2024/01/03 07:52:49;;;;;;;6.57;3.25;;;;;;;-142.43;100.00;63430.59;4966357;28;20441;-82
2024/01/03 07:55:20;;;;;;;11.32;2.70;;;;;;;-142.43;100.00;63430.59;4971582;29;20059;-82
2024/01/03 07:57:47;;;;;;;9.82;2.47;;;;;;;-142.43;100.00;63430.59;4968844;29;20051;-81
2024/01/03 08:00:14;;;;;;;9.52;2.50;;;;;;;-142.43;100.00;63430.59;4963612;29;20112;-78
2024/01/03 08:02:41;;;;;;;10.40;2.97;;;;;;;-142.43;100.00;63430.59;4954838;29;20102;-82
2024/01/03 08:05:10;;;;;;;8.50;3.97;;;;;;;-142.43;100.00;63430.59;4960897;29;20078;-82
2024/01/03 08:07:36;;;;;;;14.07;3.22;;;;;;;-142.43;100.00;63430.59;4960273;29;20051;-82
2024/01/03 08:10:03;;;;;;;8.90;3.05;;;;;;;-142.43;100.00;63430.59;4957783;29;20090;-81
2024/01/03 08:12:30;;;;;;;6.03;2.53;;;;;;;-142.43;100.00;63430.59;4957737;28;20094;-81
2024/01/03 08:14:57;;;;;;;8.93;3.00;;;;;;;-142.43;100.00;63430.59;4971141;29;20114;-82
2024/01/03 08:17:24;;;;;;;9.85;2.88;;;;;;;-142.43;100.00;63430.59;4961631;29;20079;-82
2024/01/03 08:19:51;;;;;;;13.90;3.58;;;;;;;-142.43;100.00;63430.59;4963833;28;20051;-80
2024/01/03 08:22:19;;;;;;;12.45;3.67;;;;;;;-142.43;100.00;63430.59;4960993;29;20172;-80
2024/01/03 08:24:45;;;;;;;14.07;3.85;;;;;;;-142.43;100.00;63430.59;4961991;29;20058;-81
2024/01/03 08:27:12;;;;;;;12.45;3.75;;;;;;;-142.43;100.00;63430.59;4963022;28;20375;-82
2024/01/03 08:29:39;;;;;;;13.15;3.65;;;;;;;-142.43;100.00;63430.59;4961812;28;20075;-82
2024/01/03 08:32:07;;;;;;;9.32;3.42;;;;;;;-142.43;100.00;63430.59;4961172;28;20055;-82
2024/01/03 08:34:34;;;;;;;11.73;4.10;;;;;;;-142.43;100.00;63430.59;4965581;28;20057;-81
2024/01/03 08:37:00;;;;;;;11.98;3.83;;;;;;;-142.43;100.00;63430.59;4962036;28;20051;-83
2024/01/03 08:39:28;;;;;;;7.10;2.25;;;;;;;-142.43;100.00;63430.59;4960605;29;20075;-82
2024/01/03 08:41:55;;;;;;;9.98;2.63;;;;;;;-142.43;100.00;63430.59;4957267;29;20043;-82
2024/01/03 08:44:22;;;;;;;9.02;2.90;;;;;;;-142.43;100.00;63430.59;4952861;29;20491;-82
2024/01/03 08:46:49;;;;;;;11.48;3.53;;;;;;;-142.43;100.00;63430.59;4962468;29;20111;-83
2024/01/03 08:49:15;;;;;;;9.18;2.80;;;;;;;-142.43;100.00;63430.59;4951589;29;20110;-81
2024/01/03 08:51:45;;;;;;;9.77;3.08;;;;;;;-142.43;100.00;63430.59;4960008;29;20055;-82
2024/01/03 08:54:11;;;;;;;9.65;3.22;;;;;;;-142.43;100.00;63430.59;4961250;29;20063;-81
2024/01/03 08:56:40;;;;;;;11.60;2.78;;;;;;;-142.43;100.00;63430.59;4955168;28;20455;-82
2024/01/03 08:59:07;;;;;;;6.03;2.30;;;;;;;-142.43;100.00;63430.59;4961756;28;20043;-83
2024/01/03 09:01:35;;;;;;;7.40;2.42;;;;;;;-142.43;100.00;63430.59;4966495;29;20129;-82
2024/01/03 09:04:01;;;;;;;11.48;2.20;;;;;;;-142.43;100.00;63430.59;4966714;29;20055;-81
2024/01/03 09:06:28;;;;;;;6.93;2.25;;;;;;;-142.43;100.00;63430.59;4965956;29;20118;-82
2024/01/03 09:08:55;;;;;;;3.90;1.80;;;;;;;-142.43;100.00;63430.59;4972678;28;20102;-82
2024/01/03 09:11:24;;;;;;;4.20;1.73;;;;;;;-142.43;100.00;63430.59;4969920;28;20055;-82
2024/01/03 09:13:52;;;;;;;7.40;2.38;;;;;;;-142.43;100.00;63430.59;4967159;29;20055;-82
2024/01/03 09:16:20;;;;;;;6.47;1.92;;;;;;;-142.43;100.00;63430.59;4962536;28;20134;-84
2024/01/03 09:18:47;;;;;;;6.90;1.77;;;;;;;-142.43;100.00;63430.59;4961802;28;20490;-82
2024/01/03 09:21:15;;;;;;;5.05;2.17;;;;;;;-142.43;100.00;63430.59;4962163;28;20533;-81
2024/01/03 09:23:42;;;;;;;5.65;2.08;;;;;;;-142.43;100.00;63430.59;4965762;28;20410;-81
2024/01/03 09:26:10;;;;;;;6.47;2.58;;;;;;;-142.43;100.00;63430.59;4966579;29;20047;-82
2024/01/03 09:28:38;;;;;;;10.13;2.83;;;;;;;-142.43;100.00;63430.59;4964986;29;20051;-83
2024/01/03 09:31:06;;;;;;;9.25;2.67;;;;;;;-142.43;100.00;63430.59;4963713;29;20469;-83
2024/01/03 09:33:33;;;;;;;6.28;2.38;;;;;;;-142.43;100.00;63430.59;4966143;28;20092;-83
2024/01/03 09:36:00;;;;;;;9.10;2.60;;;;;;;-142.43;100.00;63430.59;4964796;29;20570;-82
2024/01/03 09:38:27;;;;;;;10.43;3.10;;;;;;;-142.43;100.00;63430.59;4951136;29;20107;-81
2024/01/03 09:40:54;;;;;;;10.05;2.67;;;;;;;-142.43;100.00;63430.59;4953510;28;20133;-81
2024/01/03 09:43:22;;;;;;;12.60;3.80;;;;;;;-142.43;100.00;63430.59;4967276;28;20055;-82
2024/01/03 09:45:49;;;;;;;9.60;3.17;;;;;;;-142.43;100.00;63430.59;4949327;29;20078;-82
2024/01/03 09:48:17;;;;;;;10.32;2.78;;;;;;;-142.43;100.00;63430.59;4961053;28;20153;-82
2024/01/03 09:50:44;;;;;;;8.38;3.08;;;;;;;-142.43;100.00;63430.59;4960755;29;20059;-83
2024/01/03 09:53:12;;;;;;;15.40;3.65;;;;;;;-142.43;100.00;63430.59;4956716;29;20118;-83
2024/01/03 09:55:39;;;;;;;8.55;3.20;;;;;;;-142.43;100.00;63430.59;4957843;28;20075;-82
2024/01/03 09:58:07;;;;;;;12.88;3.60;;;;;;;-142.43;100.00;63430.59;4956092;28;20090;-83
2024/01/03 10:00:33;;;;;;;13.73;3.58;;;;;;;-142.43;100.00;63430.59;4959630;28;20098;-82
2024/01/03 10:03:04;;;;;;;18.70;4.90;;;;;;;-142.43;100.00;63430.59;4961657;28;20051;-82
2024/01/03 10:05:32;;;;;;;11.63;3.60;;;;;;;-142.43;100.00;63430.59;4960050;29;20055;-82
2024/01/03 10:07:59;;;;;;;15.70;3.72;;;;;;;-142.43;100.00;63430.59;4957368;28;20150;-82
2024/01/03 10:10:32;;;;;;;13.25;3.35;;;;;;;-142.43;100.00;63430.59;4963123;28;20047;-82
2024/01/03 10:13:14;;;;;;;17.25;3.90;;;;;;;-142.43;100.00;63430.59;4962017;28;20514;-81
2024/01/03 10:15:42;;;;;;;19.17;4.35;;;;;;;-142.43;100.00;63430.59;4952917;29;20110;-82
2024/01/03 10:18:10;;;;;;;11.93;3.78;;;;;;;-142.43;100.00;63430.59;4961602;29;20051;-82
2024/01/03 10:20:39;;;;;;;9.98;3.60;;;;;;;-142.43;100.00;63430.59;4962111;29;20083;-82
2024/01/03 10:23:07;;;;;;;10.48;3.17;;;;;;;-142.43;100.00;63430.59;4963447;29;20115;-82
2024/01/03 10:25:34;;;;;;;14.60;3.30;;;;;;;-142.43;100.00;63430.59;4971951;29;20081;-82
2024/01/03 10:28:02;;;;;;;14.38;3.40;;;;;;;-142.43;100.00;63430.59;4976757;28;20156;-81
2024/01/03 10:30:28;;;;;;;9.95;3.15;;;;;;;-142.43;100.00;63430.59;4975601;29;20101;-82
2024/01/03 10:32:59;;;;;;;10.27;3.40;;;;;;;-142.43;100.00;63430.59;4959989;29;20078;-81
2024/01/03 10:35:33;;;;;;;13.90;3.47;;;;;;;-142.43;100.00;63430.59;4954517;29;20051;-81
2024/01/03 10:38:03;;;;;;;19.20;4.65;;;;;;;-142.43;100.00;63430.59;4950837;29;20079;-81
2024/01/03 10:40:31;;;;;;;14.73;3.83;;;;;;;-142.43;100.00;63430.59;4961751;29;20047;-81
2024/01/03 10:43:00;;;;;;;13.88;3.97;;;;;;;-142.43;100.00;63430.59;4954685;28;20416;-82
2024/01/03 10:45:27;;;;;;;8.95;3.80;;;;;;;-142.43;100.00;63430.59;4958288;29;20059;-81
2024/01/03 10:47:54;;;;;;;9.77;3.00;;;;;;;-142.43;100.00;63430.59;4951530;28;20130;-81
2024/01/03 10:50:21;;;;;;;15.07;3.42;;;;;;;-142.43;100.00;63430.59;4962763;28;20071;-83
2024/01/03 10:52:52;;;;;;;14.07;3.50;;;;;;;-142.43;100.00;63430.59;4958036;29;20126;-83
2024/01/03 10:55:24;;;;;;;18.33;3.95;;;;;;;-142.43;100.00;63430.59;4959050;29;20051;-83
2024/01/03 10:57:58;;;;;;;12.30;3.50;;;;;;;-142.43;100.00;63430.59;4961330;29;20091;-83
2024/01/03 11:00:39;;;;;;;11.63;4.68;;;;;;;-142.43;100.00;63430.59;4946826;29;20135;-82
2024/01/03 11:03:20;;;;;;;10.48;3.70;;;;;;;-142.43;100.00;63430.59;4945426;29;20082;-83
2024/01/03 11:06:02;;;;;;;19.05;3.72;;;;;;;-142.43;100.00;63430.59;4951608;29;20087;-83
2024/01/03 11:08:34;;;;;;;14.63;3.88;;;;;;;-142.43;100.00;63430.59;4961350;29;20074;-82
2024/01/03 11:11:02;;;;;;;8.70;2.83;;;;;;;-142.43;100.00;63430.59;4963306;28;20070;-83
2024/01/03 11:13:30;;;;;;;15.43;3.95;;;;;;;-142.43;100.00;63430.59;4956238;29;20103;-82
2024/01/03 11:15:58;;;;;;;13.35;3.80;;;;;;;-142.43;100.00;63430.59;4954989;29;20057;-82
2024/01/03 11:18:52;;;;;;;12.50;3.55;;;;;;;-142.43;100.00;63430.59;4956268;28;20119;-82
2024/01/03 11:21:42;;;;;;;10.57;3.33;;;;;;;-142.43;100.00;63430.59;4957448;29;20062;-82
2024/01/03 11:24:52;;;;;;;12.52;3.92;;;;;;;-142.43;100.00;63430.59;4954015;29;20126;-83
2024/01/03 11:27:23;;;;;;;10.98;3.88;;;;;;;-142.43;100.00;63430.59;4955580;29;20581;-83
2024/01/03 11:29:51;;;;;;;13.60;3.40;;;;;;;-142.43;100.00;63430.59;4960415;29;20054;-83
2024/01/03 11:32:31;;;;;;;11.15;3.53;;;;;;;-142.43;100.00;63430.59;4955752;28;20066;-82